createdAt,value
2018-12-21T05:00:36.648Z,6.10
2018-12-21T05:01:36.628Z,6.11
2018-12-21T05:02:36.628Z,6.02
2018-12-21T05:03:36.608Z,6.11
2018-12-21T05:04:36.593Z,6.03
2018-12-21T05:05:36.589Z,6.05
2018-12-21T05:06:36.572Z,6.10
2018-12-21T05:07:36.570Z,6.27
2018-12-21T05:08:36.547Z,6.21
2018-12-21T05:09:36.544Z,6.38
2018-12-21T05:10:36.526Z,6.32
2018-12-21T05:11:36.516Z,6.35
2018-12-21T05:12:36.502Z,6.46
2018-12-21T05:13:36.512Z,6.38
2018-12-21T05:14:36.499Z,6.30
2018-12-21T05:15:36.468Z,6.32
2018-12-21T05:16:36.458Z,6.36
2018-12-21T05:17:36.453Z,6.35
2018-12-21T05:18:36.448Z,6.17
2018-12-21T05:19:36.425Z,6.21
2018-12-21T05:20:36.419Z,6.24
2018-12-21T05:21:36.402Z,6.24
2018-12-21T05:22:36.394Z,6.27
2018-12-21T05:23:36.391Z,6.33
2018-12-21T05:24:36.377Z,6.33
2018-12-21T05:25:36.356Z,6.42
2018-12-21T05:26:36.348Z,6.38
2018-12-21T05:27:36.335Z,6.42
2018-12-21T05:28:36.335Z,6.48
2018-12-21T05:29:36.311Z,6.46
2018-12-21T05:30:36.306Z,6.57
2018-12-21T05:31:36.290Z,6.46
2018-12-21T05:32:36.280Z,6.42
2018-12-21T05:33:36.287Z,6.38
2018-12-21T05:34:36.254Z,6.35
2018-12-21T05:35:36.252Z,6.35
2018-12-21T05:36:36.240Z,6.36
2018-12-21T05:37:36.221Z,6.39
2018-12-21T05:38:36.222Z,6.36
2018-12-21T05:39:36.218Z,6.45
2018-12-21T05:40:36.194Z,6.45
2018-12-21T05:41:36.176Z,6.35
2018-12-21T05:42:36.165Z,6.38
2018-12-21T05:43:36.177Z,6.30
2018-12-21T05:44:36.142Z,6.30
2018-12-21T05:45:36.132Z,6.27
2018-12-21T05:46:36.124Z,6.33
2018-12-21T05:47:36.108Z,6.33
2018-12-21T05:48:36.115Z,6.42
2018-12-21T05:49:36.089Z,6.46
2018-12-21T05:50:36.076Z,6.54
2018-12-21T05:51:36.068Z,6.54
2018-12-21T05:52:36.054Z,6.54
2018-12-21T05:53:36.057Z,6.57
2018-12-21T05:54:36.028Z,6.55
2018-12-21T05:55:36.018Z,6.53
2018-12-21T05:56:36.007Z,6.54
2018-12-21T05:57:35.996Z,6.48
2018-12-21T05:58:35.997Z,6.61
2018-12-21T05:59:35.974Z,6.58
2018-12-21T06:00:35.961Z,6.54
2018-12-21T06:01:35.948Z,6.64
2018-12-21T06:02:35.938Z,6.60
2018-12-21T06:03:35.942Z,6.69
2018-12-21T06:04:35.918Z,6.69
2018-12-21T06:05:35.910Z,6.64
2018-12-21T06:06:35.897Z,6.68
2018-12-21T06:07:35.886Z,6.63
2018-12-21T06:08:35.889Z,6.73
2018-12-21T06:09:35.865Z,6.73
2018-12-21T06:10:35.852Z,6.71
2018-12-21T06:11:35.842Z,6.72
2018-12-21T06:12:35.824Z,6.81
2018-12-21T06:13:35.844Z,6.82
2018-12-21T06:14:35.805Z,6.87
2018-12-21T06:15:35.795Z,6.79
2018-12-21T06:16:35.783Z,6.93
2018-12-21T06:17:35.771Z,6.75
2018-12-21T06:18:35.775Z,6.82
2018-12-21T06:19:35.749Z,6.71
2018-12-21T06:20:35.739Z,6.79
2018-12-21T06:21:35.735Z,6.78
2018-12-21T06:22:35.719Z,6.94
2018-12-21T06:23:35.712Z,6.81
2018-12-21T06:24:35.694Z,6.82
2018-12-21T06:25:35.683Z,6.72
2018-12-21T06:26:35.672Z,6.79
2018-12-21T06:27:35.660Z,6.82
2018-12-21T06:28:35.666Z,6.79
2018-12-21T06:29:35.636Z,6.76
2018-12-21T06:30:35.627Z,6.83
2018-12-21T06:31:35.614Z,6.79
2018-12-21T06:32:35.602Z,6.75
2018-12-21T06:33:35.656Z,6.76
2018-12-21T06:34:35.579Z,6.79
2018-12-21T06:35:35.569Z,6.79
2018-12-21T06:36:35.558Z,6.78
2018-12-21T06:37:35.546Z,6.83
2018-12-21T06:38:35.547Z,6.76
2018-12-21T06:39:35.522Z,6.81
2018-12-21T06:40:35.513Z,6.79
2018-12-21T06:41:35.502Z,6.75
2018-12-21T06:42:35.490Z,6.79
2018-12-21T06:43:35.492Z,6.75
2018-12-21T06:44:35.476Z,6.71
2018-12-21T06:45:35.457Z,6.76
2018-12-21T06:46:35.445Z,6.68
2018-12-21T06:47:35.433Z,6.68
2018-12-21T06:48:35.434Z,6.64
2018-12-21T06:49:35.414Z,6.60
2018-12-21T06:50:35.400Z,6.64
2018-12-21T06:51:35.388Z,6.54
2018-12-21T06:52:35.376Z,6.54
2018-12-21T06:53:35.385Z,6.60
2018-12-21T06:54:35.351Z,6.55
2018-12-21T06:55:35.341Z,6.61
2018-12-21T06:56:35.332Z,6.57
2018-12-21T06:57:35.319Z,6.50
2018-12-21T06:58:35.324Z,6.42
2018-12-21T06:59:35.313Z,6.46
2018-12-21T07:00:35.290Z,6.33
2018-12-21T07:01:35.283Z,6.36
2018-12-21T07:02:35.263Z,6.30
2018-12-21T07:03:35.265Z,6.32
2018-12-21T07:04:35.241Z,6.38
2018-12-21T07:05:35.229Z,6.25
2018-12-21T07:06:35.219Z,6.24
2018-12-21T07:07:35.208Z,6.06
2018-12-21T07:08:35.215Z,6.03
2018-12-21T07:09:35.185Z,6.10
2018-12-21T07:10:35.198Z,6.03
2018-12-21T07:11:35.166Z,6.05
2018-12-21T07:12:35.151Z,6.11
2018-12-21T07:13:35.161Z,6.03
2018-12-21T07:14:35.129Z,6.02
2018-12-21T07:15:35.118Z,6.06
2018-12-21T07:16:35.107Z,6.03
2018-12-21T07:17:35.094Z,5.99
2018-12-21T07:18:35.117Z,5.88
2018-12-21T07:19:35.072Z,5.96
2018-12-21T07:20:35.063Z,5.98
2018-12-21T07:21:35.054Z,6.03
2018-12-21T07:22:35.038Z,6.01
2018-12-21T07:23:35.029Z,5.98
2018-12-21T07:24:35.027Z,6.01
2018-12-21T07:25:35.003Z,6.03
2018-12-21T07:26:34.992Z,6.02
2018-12-21T07:27:34.982Z,6.03
2018-12-21T07:28:34.974Z,6.05
2018-12-21T07:29:34.986Z,6.03
2018-12-21T07:30:34.947Z,5.96
2018-12-21T07:31:34.935Z,6.01
2018-12-21T07:32:34.928Z,5.95
2018-12-21T07:33:34.920Z,6.02
2018-12-21T07:34:34.917Z,6.02
2018-12-21T07:35:34.894Z,5.93
2018-12-21T07:36:34.895Z,5.95
2018-12-21T07:37:34.867Z,5.85
2018-12-21T07:38:34.860Z,5.85
2018-12-21T07:39:34.861Z,5.85
2018-12-21T07:40:34.841Z,5.84
2018-12-21T07:41:34.827Z,5.87
2018-12-21T07:42:34.817Z,5.84
2018-12-21T07:43:34.805Z,5.88
2018-12-21T07:44:34.804Z,5.83
2018-12-21T07:45:34.782Z,5.87
2018-12-21T07:46:34.769Z,5.77
2018-12-21T07:47:34.763Z,5.70
2018-12-21T07:48:34.747Z,5.70
2018-12-21T07:49:34.752Z,5.84
2018-12-21T07:50:34.824Z,5.81
2018-12-21T07:51:34.713Z,5.75
2018-12-21T07:52:34.702Z,5.80
2018-12-21T07:53:35.923Z,5.73
2018-12-21T07:54:34.819Z,5.81
2018-12-21T07:55:34.669Z,5.81
2018-12-21T07:56:34.657Z,5.78
2018-12-21T07:57:34.660Z,5.78
2018-12-21T07:58:34.634Z,5.78
2018-12-21T07:59:34.641Z,5.73
2018-12-21T08:00:34.612Z,5.80
2018-12-21T08:01:34.601Z,5.74
2018-12-21T08:02:34.593Z,5.78
2018-12-21T08:03:34.577Z,5.77
2018-12-21T08:04:34.578Z,5.83
2018-12-21T08:05:34.550Z,5.77
2018-12-21T08:06:34.543Z,5.83
2018-12-21T08:07:34.532Z,5.75
2018-12-21T08:08:34.529Z,5.80
2018-12-21T08:09:34.543Z,5.81
2018-12-21T08:10:34.491Z,5.85
2018-12-21T08:11:34.496Z,5.81
2018-12-21T08:12:34.479Z,5.85
2018-12-21T08:13:34.468Z,5.99
2018-12-21T08:14:34.468Z,6.10
2018-12-21T08:15:34.443Z,6.27
2018-12-21T08:16:34.435Z,6.33
2018-12-21T08:17:34.421Z,6.33
2018-12-21T08:18:34.413Z,6.36
2018-12-21T08:19:34.418Z,6.38
2018-12-21T08:20:34.395Z,6.33
2018-12-21T08:21:34.379Z,6.50
2018-12-21T08:22:34.366Z,6.39
2018-12-21T08:23:34.343Z,6.39
2018-12-21T08:24:34.344Z,6.35
2018-12-21T08:25:34.333Z,6.40
2018-12-21T08:26:34.322Z,6.43
2018-12-21T08:27:34.312Z,6.32
2018-12-21T08:28:34.297Z,6.28
2018-12-21T08:29:34.301Z,6.32
2018-12-21T08:30:34.275Z,6.35
2018-12-21T08:31:34.266Z,6.35
2018-12-21T08:32:34.253Z,6.28
2018-12-21T08:33:34.248Z,6.30
2018-12-21T08:34:34.248Z,6.19
2018-12-21T08:35:34.233Z,6.21
2018-12-21T08:36:34.206Z,6.28
2018-12-21T08:37:34.215Z,6.13
2018-12-21T08:38:34.187Z,6.08
2018-12-21T08:39:34.185Z,6.01
2018-12-21T08:40:34.162Z,6.13
2018-12-21T08:41:34.154Z,6.01
2018-12-21T08:42:34.139Z,6.08
2018-12-21T08:43:34.129Z,6.02
2018-12-21T08:44:34.134Z,6.01
2018-12-21T08:45:34.105Z,6.02
2018-12-21T08:46:34.096Z,6.10
2018-12-21T08:47:34.083Z,6.03
2018-12-21T08:48:34.073Z,6.11
2018-12-21T08:49:34.074Z,6.11
2018-12-21T08:50:34.050Z,6.03
2018-12-21T08:51:34.039Z,6.06
2018-12-21T08:52:34.031Z,5.93
2018-12-21T08:53:34.016Z,5.93
2018-12-21T08:54:34.021Z,5.90
2018-12-21T08:55:33.994Z,5.90
2018-12-21T08:56:33.986Z,5.88
2018-12-21T08:57:33.972Z,5.93
2018-12-21T08:58:33.964Z,5.92
2018-12-21T08:59:33.964Z,5.90
2018-12-21T09:00:33.942Z,5.99
2018-12-21T09:01:33.932Z,5.96
2018-12-21T09:02:33.918Z,5.95
2018-12-21T09:03:33.907Z,5.93
2018-12-21T09:04:33.907Z,5.96
2018-12-21T09:05:33.886Z,5.90
2018-12-21T09:06:33.874Z,5.87
2018-12-21T09:07:33.862Z,5.92
2018-12-21T09:08:33.865Z,5.78
2018-12-21T09:09:33.851Z,5.78
2018-12-21T09:10:33.827Z,5.83
2018-12-21T09:11:33.815Z,5.78
2018-12-21T09:12:33.805Z,5.81
2018-12-21T09:13:33.796Z,5.81
2018-12-21T09:14:33.798Z,5.73
2018-12-21T09:15:33.771Z,5.80
2018-12-21T09:16:33.760Z,5.75
2018-12-21T09:17:33.736Z,5.77
2018-12-21T09:18:33.738Z,5.66
2018-12-21T09:19:33.737Z,5.69
2018-12-21T09:20:33.715Z,5.69
2018-12-21T09:21:33.703Z,5.67
2018-12-21T09:22:33.691Z,5.69
2018-12-21T09:23:33.683Z,5.63
2018-12-21T09:24:33.697Z,5.65
2018-12-21T09:25:33.658Z,5.60
2018-12-21T09:26:33.649Z,5.67
2018-12-21T09:27:33.635Z,5.60
2018-12-21T09:28:35.658Z,5.59
2018-12-21T09:29:33.614Z,5.66
2018-12-21T09:30:33.641Z,5.59
2018-12-21T09:31:33.590Z,5.62
2018-12-21T09:32:33.579Z,5.65
2018-12-21T09:33:33.568Z,5.62
2018-12-21T09:34:33.600Z,5.56
2018-12-21T09:35:33.556Z,5.52
2018-12-21T09:36:33.533Z,5.66
2018-12-21T09:37:33.516Z,5.63
2018-12-21T09:38:33.511Z,5.62
2018-12-21T09:39:33.500Z,5.58
2018-12-21T09:40:33.504Z,5.65
2018-12-21T09:41:33.477Z,5.70
2018-12-21T09:42:33.470Z,5.69
2018-12-21T09:43:33.455Z,5.70
2018-12-21T09:44:33.447Z,5.80
2018-12-21T09:45:33.475Z,5.70
2018-12-21T09:46:33.421Z,5.80
2018-12-21T09:47:33.418Z,5.74
2018-12-21T09:48:33.399Z,5.75
2018-12-21T09:49:33.386Z,5.78
2018-12-21T09:50:33.395Z,5.83
2018-12-21T09:51:33.366Z,5.88
2018-12-21T09:52:33.360Z,5.85
2018-12-21T09:53:33.341Z,5.95
2018-12-21T09:54:33.330Z,5.95
2018-12-21T09:55:33.331Z,5.92
2018-12-21T09:56:33.324Z,5.95
2018-12-21T09:57:33.296Z,5.96
2018-12-21T09:58:33.285Z,5.93
2018-12-21T09:59:33.279Z,5.95
2018-12-21T10:00:33.285Z,6.02
2018-12-21T10:01:33.250Z,6.08
2018-12-21T10:02:35.851Z,6.08
2018-12-21T10:03:33.227Z,6.03
2018-12-21T10:04:33.216Z,6.06
2018-12-21T10:05:33.221Z,6.16
2018-12-21T10:06:33.199Z,6.06
2018-12-21T10:07:33.169Z,6.08
2018-12-21T10:08:33.172Z,6.05
2018-12-21T10:09:33.168Z,6.05
2018-12-21T10:10:33.164Z,6.10
2018-12-21T10:11:33.138Z,6.11
2018-12-21T10:12:33.125Z,6.11
2018-12-21T10:13:33.115Z,6.06
2018-12-21T10:14:33.102Z,6.05
2018-12-21T10:15:33.105Z,6.03
2018-12-21T10:16:33.091Z,6.03
2018-12-21T10:17:33.069Z,6.06
2018-12-21T10:18:33.060Z,6.01
2018-12-21T10:19:33.048Z,6.06
2018-12-21T10:20:33.054Z,6.11
2018-12-21T10:21:33.027Z,6.05
2018-12-21T10:22:33.017Z,6.08
2018-12-21T10:23:33.004Z,6.06
2018-12-21T10:24:32.994Z,6.16
2018-12-21T10:25:33.020Z,6.08
2018-12-21T10:26:32.972Z,6.11
2018-12-21T10:27:32.961Z,6.25
2018-12-21T10:28:32.951Z,6.19
2018-12-21T10:29:32.938Z,6.25
2018-12-21T10:30:32.941Z,6.25
2018-12-21T10:31:32.916Z,6.27
2018-12-21T10:32:32.905Z,6.19
2018-12-21T10:33:32.893Z,6.25
2018-12-21T10:34:32.887Z,6.32
2018-12-21T10:35:32.882Z,6.27
2018-12-21T10:36:32.864Z,6.33
2018-12-21T10:37:32.848Z,6.28
2018-12-21T10:38:32.847Z,6.42
2018-12-21T10:39:32.825Z,6.45
2018-12-21T10:40:32.826Z,6.46
2018-12-21T10:41:32.803Z,6.45
2018-12-21T10:42:32.791Z,6.53
2018-12-21T10:43:32.780Z,6.53
2018-12-21T10:44:32.769Z,6.53
2018-12-21T10:45:41.427Z,6.50
2018-12-21T10:46:33.740Z,6.61
2018-12-21T10:47:32.736Z,6.58
2018-12-21T10:48:32.737Z,6.53
2018-12-21T10:49:32.719Z,6.58
2018-12-21T10:50:34.307Z,6.61
2018-12-21T10:51:33.272Z,6.60
2018-12-21T10:52:32.848Z,6.58
2018-12-21T10:53:32.667Z,6.63
2018-12-21T10:54:32.654Z,6.65
2018-12-21T10:55:32.660Z,6.64
2018-12-21T10:56:32.634Z,6.63
2018-12-21T10:57:32.621Z,6.61
2018-12-21T10:58:32.611Z,6.58
2018-12-21T10:59:32.599Z,6.64
2018-12-21T11:00:32.601Z,6.73
2018-12-21T11:01:32.576Z,6.72
2018-12-21T11:02:32.565Z,6.75
2018-12-21T11:03:32.554Z,6.72
2018-12-21T11:04:32.543Z,6.78
2018-12-21T11:05:32.544Z,6.68
2018-12-21T11:06:32.520Z,6.72
2018-12-21T11:07:32.513Z,6.78
2018-12-21T11:08:32.498Z,6.76
2018-12-21T11:09:32.490Z,6.79
2018-12-21T11:10:32.486Z,6.89
2018-12-21T11:11:32.458Z,6.96
2018-12-21T11:12:32.455Z,6.97
2018-12-21T11:13:32.440Z,6.99
2018-12-21T11:14:32.429Z,7.14
2018-12-21T11:15:32.431Z,7.15
2018-12-21T11:16:32.407Z,7.23
2018-12-21T11:17:32.396Z,7.16
2018-12-21T11:18:32.390Z,7.15
2018-12-21T11:19:32.393Z,7.12
2018-12-21T11:20:32.376Z,7.16
2018-12-21T11:21:32.349Z,7.24
2018-12-21T11:22:32.338Z,7.19
2018-12-21T11:23:32.326Z,7.29
2018-12-21T11:24:35.585Z,7.27
2018-12-21T11:25:32.320Z,7.33
2018-12-21T11:26:32.292Z,7.24
2018-12-21T11:27:32.286Z,7.42
2018-12-21T11:28:32.270Z,7.44
2018-12-21T11:29:32.259Z,7.45
2018-12-21T11:30:32.287Z,7.47
2018-12-21T11:31:32.238Z,7.45
2018-12-21T11:32:32.224Z,7.47
2018-12-21T11:33:32.430Z,7.41
2018-12-21T11:34:32.259Z,7.50
2018-12-21T11:35:33.855Z,7.62
2018-12-21T11:36:32.194Z,7.52
2018-12-21T11:37:33.251Z,7.57
2018-12-21T11:38:33.966Z,7.63
2018-12-21T11:39:32.371Z,7.67
2018-12-21T11:40:32.136Z,7.58
2018-12-21T11:41:32.215Z,7.70
2018-12-21T11:42:32.115Z,7.71
2018-12-21T11:43:32.101Z,7.71
2018-12-21T11:44:32.115Z,7.73
2018-12-21T11:45:33.044Z,7.69
2018-12-21T11:46:32.084Z,7.77
2018-12-21T11:47:34.094Z,7.77
2018-12-21T11:48:32.046Z,7.79
2018-12-21T11:49:32.042Z,7.82
2018-12-21T11:50:32.029Z,7.88
2018-12-21T11:51:32.028Z,7.94
2018-12-21T11:52:32.006Z,7.94
2018-12-21T11:53:31.993Z,7.91
2018-12-21T11:54:31.982Z,7.88
2018-12-21T11:55:31.972Z,7.91
2018-12-21T11:56:31.977Z,7.79
2018-12-21T11:57:31.950Z,7.71
2018-12-21T11:58:31.937Z,7.77
2018-12-21T11:59:31.926Z,7.74
2018-12-21T12:00:31.917Z,7.76
2018-12-21T12:01:31.913Z,7.74
2018-12-21T12:02:31.892Z,7.74
2018-12-21T12:03:31.884Z,7.69
2018-12-21T12:04:31.880Z,7.67
2018-12-21T12:05:31.862Z,7.63
2018-12-21T12:06:31.856Z,7.69
2018-12-21T12:07:31.839Z,7.69
2018-12-21T12:08:31.823Z,7.67
2018-12-21T12:09:31.814Z,7.82
2018-12-21T12:10:31.807Z,7.77
2018-12-21T12:11:32.971Z,7.69
2018-12-21T12:12:33.672Z,7.81
2018-12-21T12:13:31.773Z,7.81
2018-12-21T12:14:31.756Z,7.88
2018-12-21T12:15:31.757Z,7.86
2018-12-21T12:16:31.760Z,7.91
2018-12-21T12:17:32.026Z,7.86
2018-12-21T12:18:31.715Z,7.94
2018-12-21T12:19:31.874Z,7.91
2018-12-21T12:20:33.726Z,7.91
2018-12-21T12:21:31.706Z,7.96
2018-12-21T12:22:31.666Z,8.07
2018-12-21T12:23:33.388Z,8.02
2018-12-21T12:24:31.651Z,8.03
2018-12-21T12:25:31.655Z,8.10
2018-12-21T12:26:31.640Z,8.09
2018-12-21T12:27:31.774Z,7.99
2018-12-21T12:28:31.601Z,8.10
2018-12-21T12:29:31.585Z,8.09
2018-12-21T12:30:31.575Z,7.96
2018-12-21T12:31:31.592Z,7.96
2018-12-21T12:32:33.652Z,7.89
2018-12-21T12:33:31.547Z,7.99
2018-12-21T12:34:31.579Z,7.86
2018-12-21T12:35:31.527Z,7.89
2018-12-21T12:36:31.533Z,7.92
2018-12-21T12:37:31.509Z,7.92
2018-12-21T12:38:31.530Z,7.84
2018-12-21T12:39:31.481Z,7.91
2018-12-21T12:40:31.478Z,7.88
2018-12-21T12:41:31.476Z,7.74
2018-12-21T12:42:31.452Z,7.69
2018-12-21T12:43:33.516Z,7.71
2018-12-21T12:44:31.529Z,7.66
2018-12-21T12:45:31.410Z,7.57
2018-12-21T12:46:31.422Z,7.57
2018-12-21T12:47:31.650Z,7.57
2018-12-21T12:48:31.531Z,7.52
2018-12-21T12:49:31.366Z,7.51
2018-12-21T12:50:31.404Z,7.57
2018-12-21T12:51:31.367Z,7.55
2018-12-21T12:52:31.332Z,7.54
2018-12-21T12:53:31.321Z,7.57
2018-12-21T12:54:31.313Z,7.45
2018-12-21T12:55:31.301Z,7.48
2018-12-21T12:56:31.304Z,7.50
2018-12-21T12:57:31.280Z,7.48
2018-12-21T12:58:31.258Z,7.45
2018-12-21T12:59:31.251Z,7.45
2018-12-21T13:00:31.241Z,7.44
2018-12-21T13:01:33.413Z,7.42
2018-12-21T13:02:31.219Z,7.62
2018-12-21T13:03:31.212Z,7.47
2018-12-21T13:04:31.208Z,7.58
2018-12-21T13:05:31.199Z,7.58
2018-12-21T13:06:31.197Z,7.55
2018-12-21T13:07:31.169Z,7.57
2018-12-21T13:08:31.157Z,7.69
2018-12-21T13:09:31.148Z,7.70
2018-12-21T13:10:31.147Z,7.66
2018-12-21T13:11:31.148Z,7.66
2018-12-21T13:12:31.108Z,7.70
2018-12-21T13:13:31.106Z,7.76
2018-12-21T13:14:31.095Z,7.76
2018-12-21T13:15:31.076Z,7.84
2018-12-21T13:16:32.830Z,7.77
2018-12-21T13:17:31.053Z,7.79
2018-12-21T13:18:31.046Z,7.81
2018-12-21T13:19:31.028Z,7.92
2018-12-21T13:20:31.019Z,7.95
2018-12-21T13:21:31.032Z,7.91
2018-12-21T13:22:31.001Z,7.92
2018-12-21T13:23:30.989Z,7.92
2018-12-21T13:24:30.999Z,7.94
2018-12-21T13:25:30.964Z,7.94
2018-12-21T13:26:30.978Z,7.92
2018-12-21T13:27:30.943Z,7.94
2018-12-21T13:28:30.941Z,7.91
2018-12-21T13:29:30.927Z,8.00
2018-12-21T13:30:30.913Z,8.00
2018-12-21T13:31:30.918Z,7.99
2018-12-21T13:32:31.050Z,7.94
2018-12-21T13:33:30.877Z,7.92
2018-12-21T13:34:30.862Z,7.91
2018-12-21T13:35:30.859Z,8.04
2018-12-21T13:36:30.875Z,7.99
2018-12-21T13:37:30.831Z,7.96
2018-12-21T13:38:30.820Z,8.03
2018-12-21T13:39:30.832Z,7.96
2018-12-21T13:40:30.800Z,8.00
2018-12-21T13:41:30.790Z,8.02
2018-12-21T13:42:30.798Z,7.94
2018-12-21T13:43:30.761Z,8.03
2018-12-21T13:44:30.753Z,8.06
2018-12-21T13:45:30.740Z,8.06
2018-12-21T13:46:30.766Z,8.06
2018-12-21T13:47:30.739Z,8.04
2018-12-21T13:48:30.707Z,8.00
2018-12-21T13:49:30.693Z,7.96
2018-12-21T13:50:30.682Z,7.96
2018-12-21T13:51:30.676Z,7.94
2018-12-21T13:52:30.677Z,7.88
2018-12-21T13:53:30.671Z,7.91
2018-12-21T13:54:30.643Z,8.04
2018-12-21T13:55:30.632Z,7.95
2018-12-21T13:56:30.614Z,8.03
2018-12-21T13:57:30.622Z,8.02
2018-12-21T13:58:30.590Z,8.09
2018-12-21T13:59:30.586Z,8.00
2018-12-21T14:00:30.571Z,8.09
2018-12-21T14:01:30.561Z,8.00
2018-12-21T14:02:30.586Z,8.04
2018-12-21T14:03:30.542Z,8.06
2018-12-21T14:04:30.531Z,8.06
2018-12-21T14:05:30.527Z,8.12
2018-12-21T14:06:30.500Z,8.09
2018-12-21T14:07:30.512Z,8.13
2018-12-21T14:08:30.486Z,7.95
2018-12-21T14:09:30.482Z,8.06
2018-12-21T14:10:30.468Z,8.12
2018-12-21T14:11:30.444Z,8.13
2018-12-21T14:12:30.472Z,8.09
2018-12-21T14:13:30.438Z,8.03
2018-12-21T14:14:30.418Z,8.21
2018-12-21T14:15:30.409Z,8.10
2018-12-21T14:16:30.395Z,8.10
2018-12-21T14:17:30.399Z,8.13
2018-12-21T14:18:30.369Z,8.09
2018-12-21T14:19:30.364Z,8.20
2018-12-21T14:20:30.363Z,8.09
2018-12-21T14:21:30.355Z,8.21
2018-12-21T14:22:30.351Z,8.21
2018-12-21T14:23:30.315Z,8.32
2018-12-21T14:24:30.305Z,8.29
2018-12-21T14:25:30.304Z,8.37
2018-12-21T14:26:30.277Z,8.45
2018-12-21T14:27:30.278Z,8.49
2018-12-21T14:28:30.256Z,8.46
2018-12-21T14:29:30.247Z,8.42
2018-12-21T14:30:30.233Z,8.40
2018-12-21T14:31:30.290Z,8.42
2018-12-21T14:32:30.224Z,8.40
2018-12-21T14:33:30.199Z,8.42
2018-12-21T14:34:30.187Z,8.43
2018-12-21T14:35:30.177Z,8.45
2018-12-21T14:36:30.164Z,8.46
2018-12-21T14:37:30.170Z,8.49
2018-12-21T14:38:30.143Z,8.49
2018-12-21T14:39:30.131Z,8.49
2018-12-21T14:40:30.119Z,8.46
2018-12-21T14:41:30.111Z,8.54
2018-12-21T14:42:30.109Z,8.46
2018-12-21T14:43:30.088Z,8.46
2018-12-21T14:44:30.077Z,8.50
2018-12-21T14:45:30.065Z,8.47
2018-12-21T14:46:30.053Z,8.50
2018-12-21T14:47:30.057Z,8.54
2018-12-21T14:48:30.037Z,8.68
2018-12-21T14:49:30.023Z,8.61
2018-12-21T14:50:30.009Z,8.61
2018-12-21T14:51:30.000Z,8.67
2018-12-21T14:52:30.000Z,8.75
2018-12-21T14:53:29.979Z,8.64
2018-12-21T14:54:29.963Z,8.65
2018-12-21T14:55:37.277Z,8.61
2018-12-21T14:56:30.940Z,8.76
2018-12-21T14:57:29.946Z,8.61
2018-12-21T14:58:29.921Z,8.67
2018-12-21T14:59:29.910Z,8.71
2018-12-21T15:00:29.899Z,8.75
2018-12-21T15:01:29.888Z,8.83
2018-12-21T15:02:29.893Z,8.71
2018-12-21T15:03:29.863Z,8.79
2018-12-21T15:04:29.854Z,8.65
2018-12-21T15:05:29.847Z,8.73
2018-12-21T15:06:29.832Z,8.64
2018-12-21T15:07:29.826Z,8.80
2018-12-21T15:08:29.809Z,8.71
2018-12-21T15:09:29.796Z,8.71
2018-12-21T15:10:29.787Z,8.78
2018-12-21T15:11:29.766Z,8.78
2018-12-21T15:12:32.807Z,8.80
2018-12-21T15:13:29.751Z,8.93
2018-12-21T15:14:29.740Z,8.96
2018-12-21T15:15:29.728Z,9.17
2018-12-21T15:16:29.719Z,9.30
2018-12-21T15:17:29.722Z,9.17
2018-12-21T15:18:29.696Z,9.22
2018-12-21T15:19:29.684Z,9.20
2018-12-21T15:20:29.673Z,9.10
2018-12-21T15:21:29.662Z,9.26
2018-12-21T15:22:29.667Z,9.27
2018-12-21T15:23:29.638Z,9.41
2018-12-21T15:24:29.631Z,9.41
2018-12-21T15:25:29.618Z,9.35
2018-12-21T15:26:29.604Z,9.24
2018-12-21T15:27:29.610Z,9.20
2018-12-21T15:28:29.584Z,9.27
2018-12-21T15:29:29.570Z,9.08
2018-12-21T15:30:29.559Z,9.13
2018-12-21T15:31:29.548Z,9.23
2018-12-21T15:32:29.591Z,9.24
2018-12-21T15:33:29.533Z,9.27
2018-12-21T15:34:29.518Z,9.24
2018-12-21T15:35:29.506Z,9.22
2018-12-21T15:36:29.516Z,9.31
2018-12-21T15:37:29.501Z,9.24
2018-12-21T15:38:29.473Z,9.30
2018-12-21T15:39:29.467Z,9.26
2018-12-21T15:40:29.456Z,9.27
2018-12-21T15:41:29.445Z,9.34
2018-12-21T15:42:29.434Z,9.40
2018-12-21T15:43:29.417Z,9.41
2018-12-21T15:44:29.406Z,9.32
2018-12-21T15:45:29.396Z,9.37
2018-12-21T15:46:29.383Z,9.27
2018-12-21T15:47:29.372Z,9.34
2018-12-21T15:48:29.388Z,9.35
2018-12-21T15:49:29.351Z,9.23
2018-12-21T15:50:29.342Z,9.30
2018-12-21T15:51:29.327Z,9.27
2018-12-21T15:52:29.385Z,9.22
2018-12-21T15:53:29.316Z,9.23
2018-12-21T15:54:29.298Z,9.30
2018-12-21T15:55:29.283Z,9.24
2018-12-21T15:56:29.272Z,9.31
2018-12-21T15:57:29.259Z,9.23
2018-12-21T15:58:29.276Z,9.22
2018-12-21T15:59:29.236Z,9.31
2018-12-21T16:00:29.229Z,9.27
2018-12-21T16:01:36.606Z,9.26
2018-12-21T16:02:30.203Z,9.41
2018-12-21T16:03:29.207Z,9.49
2018-12-21T16:04:29.182Z,9.45
2018-12-21T16:05:29.169Z,9.50
2018-12-21T16:06:29.157Z,9.65
2018-12-21T16:07:29.155Z,9.52
2018-12-21T16:08:29.151Z,9.50
2018-12-21T16:09:29.125Z,9.60
2018-12-21T16:10:29.129Z,9.59
2018-12-21T16:11:29.089Z,9.53
2018-12-21T16:12:29.094Z,9.59
2018-12-21T16:13:29.103Z,9.59
2018-12-21T16:14:34.166Z,9.63
2018-12-21T16:15:30.058Z,9.65
2018-12-21T16:16:29.044Z,9.71
2018-12-21T16:17:29.033Z,9.73
2018-12-21T16:18:29.038Z,9.75
2018-12-21T16:19:29.010Z,9.83
2018-12-21T16:20:29.003Z,9.77
2018-12-21T16:21:28.992Z,9.75
2018-12-21T16:22:29.002Z,9.68
2018-12-21T16:23:28.978Z,9.62
2018-12-21T16:24:28.959Z,9.62
2018-12-21T16:25:28.946Z,9.71
2018-12-21T16:26:28.937Z,9.75
2018-12-21T16:27:28.924Z,9.71
2018-12-21T16:28:28.929Z,9.67
2018-12-21T16:29:28.902Z,9.67
2018-12-21T16:30:28.890Z,9.71
2018-12-21T16:31:28.882Z,9.73
2018-12-21T16:32:28.869Z,9.70
2018-12-21T16:33:28.871Z,9.74
2018-12-21T16:34:28.850Z,9.67
2018-12-21T16:35:28.834Z,9.85
2018-12-21T16:36:28.827Z,9.75
2018-12-21T16:37:29.148Z,9.80
2018-12-21T16:38:28.813Z,9.89
2018-12-21T16:39:28.793Z,9.80
2018-12-21T16:40:28.779Z,9.78
2018-12-21T16:41:28.766Z,9.77
2018-12-21T16:42:28.759Z,9.88
2018-12-21T16:43:28.761Z,9.88
2018-12-21T16:44:28.739Z,9.96
2018-12-21T16:45:28.721Z,9.91
2018-12-21T16:46:28.712Z,9.91
2018-12-21T16:47:28.701Z,9.91
2018-12-21T16:48:28.696Z,9.91
2018-12-21T16:49:30.848Z,10.01
2018-12-21T16:50:30.100Z,9.99
2018-12-21T16:51:28.656Z,10.06
2018-12-21T16:52:28.645Z,10.07
2018-12-21T16:53:28.634Z,10.11
2018-12-21T16:54:28.621Z,10.14
2018-12-21T16:55:28.607Z,10.20
2018-12-21T16:56:28.598Z,10.13
2018-12-21T16:57:28.586Z,10.06
2018-12-21T16:58:28.587Z,10.11
2018-12-21T16:59:28.563Z,10.13
2018-12-21T17:00:28.587Z,10.17
2018-12-21T17:01:28.541Z,10.25
2018-12-21T17:02:28.517Z,10.24
2018-12-21T17:03:28.533Z,10.20
2018-12-21T17:04:31.088Z,10.22
2018-12-21T17:05:28.615Z,10.34
2018-12-21T17:06:28.488Z,10.28
2018-12-21T17:07:28.472Z,10.20
2018-12-21T17:08:30.688Z,10.18
2018-12-21T17:09:28.459Z,10.22
2018-12-21T17:10:28.442Z,10.38
2018-12-21T17:11:28.846Z,10.42
2018-12-21T17:12:28.422Z,10.51
2018-12-21T17:13:28.421Z,10.44
2018-12-21T17:14:28.403Z,10.47
2018-12-21T17:15:28.386Z,10.36
2018-12-21T17:16:29.911Z,10.29
2018-12-21T17:17:28.365Z,10.44
2018-12-21T17:18:28.567Z,10.29
2018-12-21T17:19:28.341Z,10.39
2018-12-21T17:20:28.314Z,10.39
2018-12-21T17:21:28.404Z,10.46
2018-12-21T17:22:28.307Z,10.47
2018-12-21T17:23:28.325Z,10.52
2018-12-21T17:24:29.332Z,10.57
2018-12-21T17:25:28.272Z,10.66
2018-12-21T17:26:28.264Z,10.68
2018-12-21T17:27:28.251Z,10.69
2018-12-21T17:28:28.254Z,10.60
2018-12-21T17:29:28.866Z,10.66
2018-12-21T17:30:28.969Z,10.60
2018-12-21T17:31:28.394Z,10.54
2018-12-21T17:32:28.203Z,10.52
2018-12-21T17:33:28.264Z,10.52
2018-12-21T17:34:28.287Z,10.49
2018-12-21T17:35:28.162Z,10.52
2018-12-21T17:36:29.069Z,10.51
2018-12-21T17:37:28.338Z,10.43
2018-12-21T17:38:28.140Z,10.38
2018-12-21T17:39:28.204Z,10.31
2018-12-21T17:40:28.110Z,10.44
2018-12-21T17:41:28.094Z,10.46
2018-12-21T17:42:28.084Z,10.51
2018-12-21T17:43:28.089Z,10.44
2018-12-21T17:44:28.059Z,10.49
2018-12-21T17:45:28.048Z,10.49
2018-12-21T17:46:28.036Z,10.63
2018-12-21T17:47:28.027Z,10.60
2018-12-21T17:48:28.027Z,10.63
2018-12-21T17:49:28.006Z,10.66
2018-12-21T17:50:27.994Z,10.75
2018-12-21T17:51:27.984Z,10.69
2018-12-21T17:52:27.970Z,10.68
2018-12-21T17:53:27.958Z,10.69
2018-12-21T17:54:28.007Z,10.68
2018-12-21T17:55:27.937Z,10.65
2018-12-21T17:56:30.059Z,10.69
2018-12-21T17:57:27.918Z,10.69
2018-12-21T17:58:27.915Z,10.73
2018-12-21T17:59:27.915Z,10.69
2018-12-21T18:00:27.885Z,10.72
2018-12-21T18:01:27.875Z,10.65
2018-12-21T18:02:27.860Z,10.70
2018-12-21T18:03:27.849Z,10.69
2018-12-21T18:04:27.851Z,10.75
2018-12-21T18:05:27.827Z,10.65
2018-12-21T18:06:27.816Z,10.80
2018-12-21T18:07:27.791Z,10.66
2018-12-21T18:08:27.792Z,10.69
2018-12-21T18:09:27.794Z,10.69
2018-12-21T18:10:27.769Z,10.62
2018-12-21T18:11:27.761Z,10.66
2018-12-21T18:12:27.750Z,10.49
2018-12-21T18:13:27.737Z,10.54
2018-12-21T18:14:27.738Z,10.68
2018-12-21T18:15:27.718Z,10.73